createdAt,value
2023-09-30T00:00:09.894Z,99309.16
2023-09-30T00:02:40.118Z,99313.84
2023-09-30T00:05:07.853Z,99307.38
2023-09-30T00:07:34.734Z,99290.38
2023-09-30T00:10:01.809Z,99289.34
2023-09-30T00:12:28.767Z,99294.78
2023-09-30T00:14:55.818Z,99305.56
2023-09-30T00:17:22.524Z,99312.75
2023-09-30T00:19:49.589Z,99318.75
2023-09-30T00:22:16.572Z,99318.97
2023-09-30T00:24:43.384Z,99328.03
2023-09-30T00:27:10.210Z,99329.63
2023-09-30T00:29:36.992Z,99318.63
2023-09-30T00:32:04.315Z,99322.81
2023-09-30T00:34:37.627Z,99322.13
2023-09-30T00:37:05.273Z,99323.63
2023-09-30T00:39:34.106Z,99323.16
2023-09-30T00:42:01.048Z,99322.34
2023-09-30T00:44:29.116Z,99325.91
2023-09-30T00:46:56.654Z,99324.41
2023-09-30T00:49:27.308Z,99331.53
2023-09-30T00:51:55.478Z,99334.66
2023-09-30T00:54:25.585Z,99332.03
2023-09-30T00:56:56.739Z,99331.16
2023-09-30T00:59:24.267Z,99322.13
2023-09-30T01:01:51.036Z,99321.13
2023-09-30T01:04:19.211Z,99326.47
2023-09-30T01:06:46.187Z,99322.44
2023-09-30T01:09:14.087Z,99322.50
2023-09-30T01:11:45.471Z,99318.06
2023-09-30T01:14:28.633Z,99324.22
2023-09-30T01:16:56.124Z,99330.50
2023-09-30T01:19:25.212Z,99334.09
2023-09-30T01:21:55.866Z,99326.47
2023-09-30T01:24:22.909Z,99317.50
2023-09-30T01:26:49.730Z,99314.16
2023-09-30T01:29:16.611Z,99325.22
2023-09-30T01:31:43.602Z,99318.09
2023-09-30T01:34:11.824Z,99309.31
2023-09-30T01:36:38.545Z,99306.72
2023-09-30T01:39:05.522Z,99321.09
2023-09-30T01:41:32.284Z,99316.81
2023-09-30T01:43:59.174Z,99316.13
2023-09-30T01:46:26.982Z,99319.16
2023-09-30T01:48:53.693Z,99328.28
2023-09-30T01:51:20.412Z,99325.88
2023-09-30T01:53:47.172Z,99323.31
2023-09-30T01:56:13.827Z,99312.84
2023-09-30T01:58:40.574Z,99319.72
2023-09-30T02:01:07.444Z,99322.78
2023-09-30T02:03:34.274Z,99324.53
2023-09-30T02:06:01.153Z,99327.91
2023-09-30T02:08:27.836Z,99328.34
2023-09-30T02:10:54.853Z,99332.03
2023-09-30T02:13:21.589Z,99328.88
2023-09-30T02:15:48.438Z,99330.56
2023-09-30T02:18:15.899Z,99339.69
2023-09-30T02:20:42.667Z,99348.50
2023-09-30T02:23:12.592Z,99346.72
2023-09-30T02:25:39.955Z,99348.78
2023-09-30T02:28:07.646Z,99349.38
2023-09-30T02:30:34.363Z,99351.91
2023-09-30T02:33:01.558Z,99354.72
2023-09-30T02:35:28.348Z,99342.78
2023-09-30T02:37:55.230Z,99339.09
2023-09-30T02:40:21.937Z,99335.59
2023-09-30T02:42:49.975Z,99332.34
2023-09-30T02:45:18.569Z,99331.47
2023-09-30T02:47:45.715Z,99333.75
2023-09-30T02:50:13.054Z,99329.31
2023-09-30T02:52:42.998Z,99327.72
2023-09-30T02:55:11.028Z,99308.06
2023-09-30T02:57:38.565Z,99309.75
2023-09-30T03:00:24.958Z,99317.66
2023-09-30T03:02:54.460Z,99312.31
2023-09-30T03:05:21.757Z,99317.78
2023-09-30T03:07:49.262Z,99324.19
2023-09-30T03:10:21.253Z,99332.50
2023-09-30T03:12:49.060Z,99328.91
2023-09-30T03:15:16.691Z,99324.59
2023-09-30T03:17:44.346Z,99335.44
2023-09-30T03:20:15.678Z,99327.47
2023-09-30T03:22:43.866Z,99340.25
2023-09-30T03:25:12.613Z,99349.44
2023-09-30T03:27:40.044Z,99345.00
2023-09-30T03:30:07.995Z,99352.16
2023-09-30T03:32:35.031Z,99347.59
2023-09-30T03:35:02.036Z,99359.16
2023-09-30T03:37:29.228Z,99356.75
2023-09-30T03:39:56.251Z,99348.88
2023-09-30T03:42:23.372Z,99341.47
2023-09-30T03:44:50.129Z,99344.22
2023-09-30T03:47:17.490Z,99334.34
2023-09-30T03:49:44.367Z,99326.59
2023-09-30T03:52:15.746Z,99338.31
2023-09-30T03:54:43.013Z,99339.44
2023-09-30T03:57:09.775Z,99346.84
2023-09-30T03:59:36.490Z,99340.53
2023-09-30T04:02:03.199Z,99347.63
2023-09-30T04:04:30.060Z,99340.63
2023-09-30T04:06:56.848Z,99337.06
2023-09-30T04:09:23.597Z,99356.78
2023-09-30T04:11:50.462Z,99363.06
2023-09-30T04:14:18.347Z,99379.81
2023-09-30T04:16:45.915Z,99383.47
2023-09-30T04:19:12.853Z,99373.78
2023-09-30T04:21:40.073Z,99379.91
2023-09-30T04:24:08.015Z,99383.47
2023-09-30T04:26:34.766Z,99381.63
2023-09-30T04:29:02.378Z,99388.72
2023-09-30T04:31:30.230Z,99383.13
2023-09-30T04:33:59.136Z,99381.53
2023-09-30T04:36:26.123Z,99383.06
2023-09-30T04:38:52.828Z,99382.78
2023-09-30T04:41:20.188Z,99377.47
2023-09-30T04:43:47.376Z,99379.34
2023-09-30T04:46:14.739Z,99382.31
2023-09-30T04:48:42.424Z,99384.66
2023-09-30T04:51:10.655Z,99364.16
2023-09-30T04:53:38.893Z,99369.22
2023-09-30T04:56:05.882Z,99362.47
2023-09-30T04:58:32.570Z,99371.94
2023-09-30T05:00:59.682Z,99379.91
2023-09-30T05:03:26.906Z,99382.69
2023-09-30T05:05:57.877Z,99369.81
2023-09-30T05:08:25.481Z,99376.19
2023-09-30T05:10:56.370Z,99386.88
2023-09-30T05:13:24.501Z,99386.16
2023-09-30T05:15:55.055Z,99392.44
2023-09-30T05:18:21.919Z,99396.88
2023-09-30T05:20:50.495Z,99393.34
2023-09-30T05:23:18.616Z,99395.63
2023-09-30T05:25:45.425Z,99386.78
2023-09-30T05:28:12.734Z,99396.66
2023-09-30T05:30:40.399Z,99394.88
2023-09-30T05:33:07.925Z,99388.31
2023-09-30T05:35:34.689Z,99388.94
2023-09-30T05:38:01.629Z,99404.97
2023-09-30T05:40:31.309Z,99413.47
2023-09-30T05:43:00.086Z,99407.88
2023-09-30T05:45:28.992Z,99411.97
2023-09-30T05:47:58.187Z,99425.88
2023-09-30T05:50:26.465Z,99421.97
2023-09-30T05:52:54.897Z,99426.28
2023-09-30T05:55:23.067Z,99429.06
2023-09-30T05:57:51.010Z,99427.47
2023-09-30T06:00:21.940Z,99423.00
2023-09-30T06:02:49.753Z,99432.78
2023-09-30T06:05:27.592Z,99422.03
2023-09-30T06:07:55.311Z,99435.28
2023-09-30T06:10:22.556Z,99430.44
2023-09-30T06:12:56.019Z,99433.00
2023-09-30T06:15:27.069Z,99435.19
2023-09-30T06:17:55.332Z,99434.63
2023-09-30T06:20:23.665Z,99434.31
2023-09-30T06:22:50.830Z,99434.91
2023-09-30T06:25:18.923Z,99442.09
2023-09-30T06:27:47.112Z,99447.59
2023-09-30T06:30:17.034Z,99432.22
2023-09-30T06:32:44.936Z,99437.84
2023-09-30T06:35:12.068Z,99448.81
2023-09-30T06:37:40.249Z,99446.34
2023-09-30T06:40:09.510Z,99450.16
2023-09-30T06:42:38.168Z,99438.78
2023-09-30T06:45:08.575Z,99444.56
2023-09-30T06:47:37.468Z,99448.13
2023-09-30T06:50:17.353Z,99449.28
2023-09-30T06:52:46.586Z,99451.25
2023-09-30T06:55:17.794Z,99451.31
2023-09-30T06:57:44.969Z,99441.97
2023-09-30T07:00:14.242Z,99429.91
2023-09-30T07:02:42.269Z,99426.72
2023-09-30T07:05:13.737Z,99421.09
2023-09-30T07:07:41.962Z,99425.38
2023-09-30T07:10:09.319Z,99422.50
2023-09-30T07:12:37.438Z,99427.69
2023-09-30T07:15:05.937Z,99429.47
2023-09-30T07:17:35.137Z,99419.25
2023-09-30T07:20:06.170Z,99420.88
2023-09-30T07:22:46.113Z,99420.75
2023-09-30T07:25:19.746Z,99409.09
2023-09-30T07:27:47.119Z,99410.66
2023-09-30T07:30:16.747Z,99410.69
2023-09-30T07:32:44.908Z,99414.97
2023-09-30T07:35:13.046Z,99419.41
2023-09-30T07:37:39.841Z,99430.28
2023-09-30T07:40:07.555Z,99425.16
2023-09-30T07:42:34.747Z,99430.84
2023-09-30T07:45:02.173Z,99422.75
2023-09-30T07:47:28.885Z,99416.31
2023-09-30T07:49:55.797Z,99395.38
2023-09-30T07:52:22.422Z,99381.66
2023-09-30T07:54:49.194Z,99368.94
2023-09-30T07:57:15.883Z,99379.66
2023-09-30T07:59:42.744Z,99371.88
2023-09-30T08:02:09.756Z,99372.78
2023-09-30T08:04:36.964Z,99367.59
2023-09-30T08:07:04.119Z,99365.94
2023-09-30T08:09:31.005Z,99367.16
2023-09-30T08:11:58.026Z,99368.19
2023-09-30T08:14:24.878Z,99368.84
2023-09-30T08:16:51.873Z,99363.38
2023-09-30T08:19:18.565Z,99371.88
2023-09-30T08:21:46.262Z,99369.88
2023-09-30T08:24:13.027Z,99372.25
2023-09-30T08:26:39.824Z,99372.53
2023-09-30T08:29:07.506Z,99372.91
2023-09-30T08:31:34.484Z,99370.47
2023-09-30T08:34:01.528Z,99388.00
2023-09-30T08:36:28.285Z,99373.69
2023-09-30T08:38:55.211Z,99374.00
2023-09-30T08:41:40.047Z,99358.91
2023-09-30T08:44:06.883Z,99379.22
2023-09-30T08:46:35.928Z,99371.09
2023-09-30T08:49:04.499Z,99369.22
2023-09-30T08:51:32.737Z,99381.91
2023-09-30T08:54:02.147Z,99388.63
2023-09-30T08:56:30.235Z,99386.28
2023-09-30T08:59:01.801Z,99376.63
2023-09-30T09:01:29.419Z,99384.22
2023-09-30T09:03:57.463Z,99384.91
2023-09-30T09:06:25.924Z,99388.53
2023-09-30T09:08:53.725Z,99377.22
2023-09-30T09:11:20.660Z,99376.13
2023-09-30T09:13:50.758Z,99381.50
2023-09-30T09:16:21.291Z,99377.69
2023-09-30T09:18:48.975Z,99367.78
2023-09-30T09:21:19.164Z,99356.25
2023-09-30T09:23:48.120Z,99355.59
2023-09-30T09:26:36.806Z,99349.59
2023-09-30T09:29:05.897Z,99353.63
2023-09-30T09:31:35.818Z,99341.50
2023-09-30T09:34:04.625Z,99347.03
2023-09-30T09:36:45.866Z,99350.41
2023-09-30T09:39:17.543Z,99348.19
2023-09-30T09:41:55.652Z,99353.44
2023-09-30T09:44:23.979Z,99352.28
2023-09-30T09:46:51.660Z,99353.56
2023-09-30T09:49:19.896Z,99344.16
2023-09-30T09:51:49.058Z,99356.72
2023-09-30T09:54:16.920Z,99361.34
2023-09-30T09:56:47.194Z,99375.47
2023-09-30T09:59:15.035Z,99385.97
2023-09-30T10:01:43.107Z,99391.38
2023-09-30T10:04:12.333Z,99399.78
2023-09-30T10:06:42.400Z,99405.50
2023-09-30T10:09:12.059Z,99403.59
2023-09-30T10:11:41.087Z,99399.16
2023-09-30T10:14:14.156Z,99395.78
2023-09-30T10:16:43.750Z,99396.13
2023-09-30T10:19:13.541Z,99370.97
2023-09-30T10:21:40.865Z,99368.31
2023-09-30T10:24:26.024Z,99371.44
2023-09-30T10:27:32.706Z,99375.38
2023-09-30T10:30:03.647Z,99369.94
2023-09-30T10:32:53.968Z,99391.91
2023-09-30T10:35:21.388Z,99396.72
2023-09-30T10:37:49.784Z,99393.03
2023-09-30T10:40:30.486Z,99392.25
2023-09-30T10:42:58.148Z,99373.09
2023-09-30T10:45:44.477Z,99355.06
2023-09-30T10:48:26.681Z,99349.16
2023-09-30T10:50:56.615Z,99339.22
2023-09-30T10:53:23.950Z,99340.03
2023-09-30T10:56:08.944Z,99350.25
2023-09-30T10:58:42.157Z,99341.03
2023-09-30T11:01:09.367Z,99336.81
2023-09-30T11:03:36.582Z,99338.34
2023-09-30T11:06:12.410Z,99340.00
2023-09-30T11:08:44.291Z,99341.88
2023-09-30T11:11:11.023Z,99337.84
2023-09-30T11:13:37.952Z,99340.78
2023-09-30T11:16:05.945Z,99329.66
2023-09-30T11:18:33.508Z,99343.00
2023-09-30T11:21:09.006Z,99329.19
2023-09-30T11:23:36.514Z,99343.66
2023-09-30T11:26:03.918Z,99342.22
2023-09-30T11:28:41.664Z,99344.97
2023-09-30T11:31:11.849Z,99348.72
2023-09-30T11:33:54.938Z,99347.25
2023-09-30T11:36:25.033Z,99347.78
2023-09-30T11:38:56.014Z,99356.22
2023-09-30T11:41:23.836Z,99341.66
2023-09-30T11:44:06.318Z,99337.19
2023-09-30T11:46:34.643Z,99335.91
2023-09-30T11:49:09.801Z,99336.28
2023-09-30T11:51:48.648Z,99335.91
2023-09-30T11:54:15.618Z,99332.91
2023-09-30T11:56:42.366Z,99328.78
2023-09-30T11:59:11.608Z,99332.41
2023-09-30T12:01:38.727Z,99336.47
2023-09-30T12:04:06.046Z,99338.41
2023-09-30T12:06:35.281Z,99350.38
2023-09-30T12:09:03.941Z,99360.69
2023-09-30T12:11:30.741Z,99347.31
2023-09-30T12:13:57.536Z,99354.81
2023-09-30T12:16:25.152Z,99351.88
2023-09-30T12:18:51.980Z,99348.38
2023-09-30T12:21:21.872Z,99340.16
2023-09-30T12:23:49.638Z,99342.03
2023-09-30T12:26:20.200Z,99347.03
2023-09-30T12:28:48.255Z,99346.16
2023-09-30T12:31:15.237Z,99350.94
2023-09-30T12:33:42.321Z,99353.25
2023-09-30T12:36:09.215Z,99342.91
2023-09-30T12:38:35.947Z,99351.59
2023-09-30T12:41:02.638Z,99352.03
2023-09-30T12:43:29.384Z,99351.09
2023-09-30T12:45:56.289Z,99350.50
2023-09-30T12:48:23.112Z,99357.34
2023-09-30T12:50:49.828Z,99353.66
2023-09-30T12:53:16.525Z,99356.22
2023-09-30T12:55:43.353Z,99360.19
2023-09-30T12:58:10.203Z,99354.38
2023-09-30T13:00:37.416Z,99348.41
2023-09-30T13:03:04.875Z,99350.78
2023-09-30T13:05:31.895Z,99349.91
2023-09-30T13:07:58.897Z,99331.56
2023-09-30T13:10:26.739Z,99332.59
2023-09-30T13:12:54.996Z,99324.72
2023-09-30T13:15:22.730Z,99327.56
2023-09-30T13:17:49.447Z,99327.31
2023-09-30T13:20:16.193Z,99317.78
2023-09-30T13:22:42.913Z,99314.22
2023-09-30T13:25:11.835Z,99316.06
2023-09-30T13:27:39.757Z,99304.31
2023-09-30T13:30:08.747Z,99306.16
2023-09-30T13:32:39.290Z,99312.94
2023-09-30T13:35:07.361Z,99304.34
2023-09-30T13:37:34.617Z,99304.84
2023-09-30T13:40:03.104Z,99303.81
2023-09-30T13:42:30.032Z,99303.94
2023-09-30T13:44:58.630Z,99302.31
2023-09-30T13:47:26.402Z,99305.72
2023-09-30T13:49:53.656Z,99309.69
2023-09-30T13:52:20.367Z,99295.84
2023-09-30T13:54:47.586Z,99299.31
2023-09-30T13:57:15.371Z,99303.56
2023-09-30T13:59:43.402Z,99296.78
2023-09-30T14:02:10.293Z,99296.97
2023-09-30T14:04:37.136Z,99300.03
2023-09-30T14:07:04.373Z,99293.63
2023-09-30T14:09:36.199Z,99299.69
2023-09-30T14:12:05.500Z,99292.16
2023-09-30T14:14:34.445Z,99294.44
2023-09-30T14:17:01.581Z,99305.69
2023-09-30T14:19:29.792Z,99300.81
2023-09-30T14:21:57.697Z,99302.38
2023-09-30T14:24:24.542Z,99310.69
2023-09-30T14:26:51.228Z,99301.41
2023-09-30T14:29:18.079Z,99310.28
2023-09-30T14:31:44.860Z,99303.16
2023-09-30T14:34:11.764Z,99299.22
2023-09-30T14:36:38.634Z,99300.53
2023-09-30T14:39:14.314Z,99299.31
2023-09-30T14:41:41.996Z,99296.31
2023-09-30T14:44:09.005Z,99300.63
2023-09-30T14:46:37.016Z,99290.59
2023-09-30T14:49:03.806Z,99277.50
2023-09-30T14:51:30.608Z,99286.94
2023-09-30T14:53:57.288Z,99289.13
2023-09-30T14:56:24.174Z,99287.22
2023-09-30T14:58:50.911Z,99288.09
2023-09-30T15:01:18.654Z,99286.13
2023-09-30T15:03:45.568Z,99293.38
2023-09-30T15:06:12.473Z,99287.44
2023-09-30T15:08:39.989Z,99272.78
2023-09-30T15:11:07.454Z,99268.34
2023-09-30T15:13:34.171Z,99280.66
2023-09-30T15:16:00.998Z,99279.31
2023-09-30T15:18:27.920Z,99294.25
2023-09-30T15:20:54.587Z,99294.25
2023-09-30T15:23:21.654Z,99297.63
2023-09-30T15:25:48.494Z,99280.66
2023-09-30T15:28:15.249Z,99292.56
2023-09-30T15:30:42.165Z,99285.16
2023-09-30T15:33:09.659Z,99289.13
2023-09-30T15:35:36.581Z,99283.81
2023-09-30T15:38:04.637Z,99281.78
2023-09-30T15:40:33.300Z,99287.47
2023-09-30T15:43:00.308Z,99288.09
2023-09-30T15:45:27.061Z,99279.78
2023-09-30T15:47:53.839Z,99285.56
2023-09-30T15:50:21.047Z,99282.69
2023-09-30T15:52:47.885Z,99285.47
2023-09-30T15:55:14.787Z,99277.00
2023-09-30T15:57:43.734Z,99272.94
2023-09-30T16:00:11.666Z,99276.59
2023-09-30T16:02:38.634Z,99281.13
2023-09-30T16:05:05.800Z,99271.66
2023-09-30T16:07:32.650Z,99265.00
2023-09-30T16:09:59.433Z,99269.94
2023-09-30T16:12:26.175Z,99270.13
2023-09-30T16:14:52.862Z,99272.56
2023-09-30T16:17:20.940Z,99274.06
2023-09-30T16:19:47.698Z,99273.44
2023-09-30T16:22:14.562Z,99274.94
2023-09-30T16:24:41.269Z,99269.72
2023-09-30T16:27:07.996Z,99270.78
2023-09-30T16:29:34.700Z,99266.06
2023-09-30T16:32:01.473Z,99265.31
2023-09-30T16:34:29.007Z,99264.72
2023-09-30T16:36:55.804Z,99271.56
2023-09-30T16:39:22.568Z,99277.38
2023-09-30T16:41:49.239Z,99277.69
2023-09-30T16:44:16.295Z,99281.13
2023-09-30T16:46:43.012Z,99281.97
2023-09-30T16:49:10.130Z,99275.66
2023-09-30T16:51:36.964Z,99294.25
2023-09-30T16:54:03.792Z,99293.06
2023-09-30T16:56:30.508Z,99295.88
2023-09-30T16:58:58.131Z,99300.47
2023-09-30T17:01:25.016Z,99299.69
2023-09-30T17:03:51.888Z,99303.69
2023-09-30T17:06:18.599Z,99317.63
2023-09-30T17:08:45.355Z,99311.09
2023-09-30T17:11:12.132Z,99319.41
2023-09-30T17:13:38.891Z,99325.28
2023-09-30T17:16:07.203Z,99325.69
2023-09-30T17:18:34.973Z,99321.50
2023-09-30T17:21:02.054Z,99327.72
2023-09-30T17:23:28.791Z,99323.25
2023-09-30T17:26:01.321Z,99324.16
2023-09-30T17:28:28.117Z,99321.63
2023-09-30T17:30:54.904Z,99319.31
2023-09-30T17:33:22.001Z,99321.22
2023-09-30T17:35:48.703Z,99320.66
2023-09-30T17:38:15.467Z,99328.03
2023-09-30T17:40:42.225Z,99333.72
2023-09-30T17:43:09.092Z,99322.53
2023-09-30T17:45:36.037Z,99325.53
2023-09-30T17:48:02.901Z,99322.69
2023-09-30T17:50:29.681Z,99316.59
2023-09-30T17:52:56.365Z,99326.53
2023-09-30T17:55:23.253Z,99317.63
2023-09-30T17:57:50.056Z,99325.97
2023-09-30T18:00:18.585Z,99335.19
2023-09-30T18:02:45.907Z,99334.72
2023-09-30T18:05:12.728Z,99343.97
2023-09-30T18:07:39.495Z,99341.44
2023-09-30T18:10:06.850Z,99343.41
2023-09-30T18:12:33.764Z,99349.06
2023-09-30T18:15:00.641Z,99355.47
2023-09-30T18:17:27.599Z,99340.78
2023-09-30T18:19:54.611Z,99352.03
2023-09-30T18:22:21.616Z,99355.88
2023-09-30T18:24:48.477Z,99352.38
2023-09-30T18:27:15.281Z,99346.03
2023-09-30T18:29:44.237Z,99344.13
2023-09-30T18:32:11.154Z,99351.03
2023-09-30T18:34:37.932Z,99350.97
2023-09-30T18:37:04.696Z,99340.50
2023-09-30T18:39:32.639Z,99336.72
2023-09-30T18:41:59.365Z,99328.34
2023-09-30T18:44:26.264Z,99328.97
2023-09-30T18:46:53.417Z,99324.88
2023-09-30T18:49:20.303Z,99330.03
2023-09-30T18:51:47.284Z,99333.66
2023-09-30T18:54:14.252Z,99326.63
2023-09-30T18:56:41.040Z,99330.13
2023-09-30T18:59:10.053Z,99331.75
2023-09-30T19:01:38.186Z,99332.69
2023-09-30T19:04:06.296Z,99334.78
2023-09-30T19:06:33.274Z,99342.25
2023-09-30T19:09:00.005Z,99355.91
2023-09-30T19:11:27.379Z,99338.28
2023-09-30T19:13:54.132Z,99348.16
2023-09-30T19:16:21.046Z,99351.28
2023-09-30T19:18:48.025Z,99343.34
2023-09-30T19:21:15.650Z,99346.72
2023-09-30T19:23:42.473Z,99330.84
2023-09-30T19:26:15.883Z,99334.81
2023-09-30T19:28:44.014Z,99344.97
2023-09-30T19:31:14.832Z,99346.31
2023-09-30T19:33:43.845Z,99344.59
2023-09-30T19:36:12.128Z,99342.13
2023-09-30T19:38:39.975Z,99340.19
2023-09-30T19:41:13.620Z,99339.00
2023-09-30T19:43:41.605Z,99341.78
2023-09-30T19:46:08.536Z,99345.72
2023-09-30T19:48:35.316Z,99346.59
2023-09-30T19:51:01.994Z,99349.47
2023-09-30T19:53:28.872Z,99355.81
2023-09-30T19:55:55.588Z,99353.66
2023-09-30T19:58:22.434Z,99354.72
2023-09-30T20:00:49.505Z,99359.22
2023-09-30T20:03:16.430Z,99360.13
2023-09-30T20:05:43.366Z,99359.41
2023-09-30T20:08:10.262Z,99363.25
2023-09-30T20:10:38.168Z,99366.16
2023-09-30T20:13:10.580Z,99363.75
2023-09-30T20:15:37.511Z,99365.00
2023-09-30T20:18:04.661Z,99375.94
2023-09-30T20:20:31.829Z,99369.09
2023-09-30T20:22:58.696Z,99369.00
2023-09-30T20:25:26.387Z,99376.03
2023-09-30T20:27:53.285Z,99366.25
2023-09-30T20:30:20.034Z,99367.53
2023-09-30T20:32:47.525Z,99367.13
2023-09-30T20:35:14.413Z,99359.06
2023-09-30T20:37:41.208Z,99358.91
2023-09-30T20:40:12.122Z,99371.34
2023-09-30T20:42:39.078Z,99375.19
2023-09-30T20:45:06.698Z,99373.63
2023-09-30T20:47:34.291Z,99372.88
2023-09-30T20:50:01.048Z,99374.81
2023-09-30T20:52:28.710Z,99384.59
2023-09-30T20:54:55.512Z,99383.81
2023-09-30T20:57:22.220Z,99372.84
2023-09-30T20:59:48.912Z,99374.81
2023-09-30T21:02:15.679Z,99369.78
2023-09-30T21:04:42.595Z,99372.47
2023-09-30T21:07:11.680Z,99369.88
2023-09-30T21:09:38.573Z,99367.25
2023-09-30T21:12:05.623Z,99359.50
2023-09-30T21:14:32.400Z,99359.41
2023-09-30T21:16:59.688Z,99357.53
2023-09-30T21:19:26.462Z,99364.22
2023-09-30T21:21:54.049Z,99364.13
2023-09-30T21:24:21.225Z,99357.28
2023-09-30T21:26:47.927Z,99356.53
2023-09-30T21:29:14.668Z,99359.06
2023-09-30T21:31:42.779Z,99360.81
2023-09-30T21:34:09.856Z,99364.34
2023-09-30T21:36:36.722Z,99358.03
2023-09-30T21:39:06.460Z,99365.00
2023-09-30T21:41:34.562Z,99364.13
2023-09-30T21:44:02.597Z,99363.53
2023-09-30T21:46:29.495Z,99370.06
2023-09-30T21:48:56.955Z,99363.97
2023-09-30T21:51:23.988Z,99360.50
2023-09-30T21:53:50.758Z,99362.41
2023-09-30T21:56:17.534Z,99365.00
2023-09-30T21:58:44.395Z,99358.63
2023-09-30T22:01:15.243Z,99372.09
2023-09-30T22:03:47.187Z,99357.28
2023-09-30T22:06:14.252Z,99366.97
2023-09-30T22:08:41.149Z,99370.66
2023-09-30T22:11:08.448Z,99370.59
2023-09-30T22:13:36.414Z,99377.88
2023-09-30T22:16:03.307Z,99374.41
2023-09-30T22:18:30.236Z,99361.41
2023-09-30T22:20:57.176Z,99363.28
2023-09-30T22:23:24.188Z,99366.88
2023-09-30T22:25:51.121Z,99365.84
2023-09-30T22:28:18.056Z,99374.00
2023-09-30T22:30:47.388Z,99375.09
2023-09-30T22:33:14.412Z,99371.69
2023-09-30T22:35:42.143Z,99366.34
2023-09-30T22:38:09.440Z,99365.53
2023-09-30T22:40:36.233Z,99376.97
2023-09-30T22:43:06.135Z,99373.53
2023-09-30T22:45:34.627Z,99372.69
2023-09-30T22:48:01.459Z,99374.47
2023-09-30T22:50:28.344Z,99374.38
2023-09-30T22:52:56.455Z,99374.56
2023-09-30T22:55:24.644Z,99378.19
2023-09-30T22:57:54.948Z,99372.88
2023-09-30T23:00:23.095Z,99372.94
2023-09-30T23:02:50.137Z,99370.22
2023-09-30T23:05:18.441Z,99370.03
2023-09-30T23:07:46.199Z,99367.13
2023-09-30T23:10:18.197Z,99371.69
2023-09-30T23:12:45.198Z,99364.81
2023-09-30T23:15:15.223Z,99370.19
2023-09-30T23:17:45.434Z,99371.97
2023-09-30T23:20:21.335Z,99372.78
2023-09-30T23:22:52.491Z,99369.31
2023-09-30T23:25:27.998Z,99380.84
2023-09-30T23:27:56.731Z,99381.78
2023-09-30T23:30:25.688Z,99377.44
2023-09-30T23:32:54.482Z,99377.38
2023-09-30T23:35:22.271Z,99379.06
2023-09-30T23:37:54.310Z,99372.84
2023-09-30T23:40:24.119Z,99377.59
2023-09-30T23:42:54.591Z,99387.44
2023-09-30T23:45:21.532Z,99388.31
2023-09-30T23:47:52.007Z,99386.47
2023-09-30T23:50:20.704Z,99382.84
2023-09-30T23:52:52.835Z,99389.94
2023-09-30T23:55:23.352Z,99387.34
2023-09-30T23:57:50.423Z,99380.28
